createdAt,value
2022-11-05T00:03:07.661Z,11.20
2022-11-05T00:09:30.005Z,11.20
2022-11-05T00:15:51.074Z,11.00
2022-11-05T00:22:11.763Z,10.90
2022-11-05T00:28:14.055Z,10.80
2022-11-05T00:34:16.179Z,10.80
2022-11-05T00:40:18.435Z,10.80
2022-11-05T00:46:20.563Z,10.70
2022-11-05T00:52:41.098Z,10.70
2022-11-05T00:58:43.120Z,10.70
2022-11-05T01:04:45.584Z,10.70
2022-11-05T01:10:51.440Z,10.70
2022-11-05T01:16:53.734Z,10.70
2022-11-05T01:22:56.030Z,10.80
2022-11-05T01:29:00.732Z,10.80
2022-11-05T01:35:05.033Z,10.80
2022-11-05T01:41:07.509Z,10.90
2022-11-05T01:47:25.471Z,10.90
2022-11-05T01:53:33.898Z,10.90
2022-11-05T01:59:41.316Z,11.00
2022-11-05T02:05:44.765Z,11.00
2022-11-05T02:11:47.931Z,11.00
2022-11-05T02:18:15.858Z,10.90
2022-11-05T02:24:53.835Z,10.90
2022-11-05T02:31:01.829Z,10.90
2022-11-05T02:37:07.169Z,10.80
2022-11-05T02:43:25.024Z,10.80
2022-11-05T02:49:48.342Z,10.90
2022-11-05T02:56:16.624Z,10.90
2022-11-05T03:02:18.707Z,11.00
2022-11-05T03:08:57.459Z,10.90
2022-11-05T03:15:09.159Z,11.00
2022-11-05T03:21:21.874Z,10.90
2022-11-05T03:27:28.191Z,10.80
2022-11-05T03:33:33.654Z,10.80
2022-11-05T03:39:46.283Z,10.80
2022-11-05T03:45:56.336Z,10.90
2022-11-05T03:52:22.220Z,10.80
2022-11-05T03:58:25.154Z,10.80
2022-11-05T04:04:27.283Z,10.80
2022-11-05T04:10:48.268Z,10.80
2022-11-05T04:17:09.221Z,10.80
2022-11-05T04:23:29.948Z,10.80
2022-11-05T04:29:50.707Z,10.70
2022-11-05T04:35:52.927Z,10.70
2022-11-05T04:41:55.173Z,10.70
2022-11-05T04:47:57.783Z,10.70
2022-11-05T04:53:59.902Z,10.80
2022-11-05T05:00:02.323Z,10.80
2022-11-05T05:06:04.635Z,10.90
2022-11-05T05:12:08.609Z,10.80
2022-11-05T05:18:10.767Z,10.80
2022-11-05T05:24:17.738Z,10.80
2022-11-05T05:30:19.861Z,11.00
2022-11-05T05:36:22.968Z,11.00
2022-11-05T05:42:25.527Z,11.10
2022-11-05T05:48:27.715Z,11.30
2022-11-05T05:54:32.854Z,11.50
2022-11-05T06:00:36.775Z,11.60
2022-11-05T06:06:38.936Z,11.80
2022-11-05T06:12:41.581Z,11.90
2022-11-05T06:18:44.126Z,12.10
2022-11-05T06:24:46.298Z,12.30
2022-11-05T06:30:52.173Z,12.50
2022-11-05T06:36:54.159Z,12.70
2022-11-05T06:42:56.475Z,12.80
2022-11-05T06:48:58.646Z,12.90
2022-11-05T06:55:00.937Z,13.10
2022-11-05T07:01:08.893Z,13.20
2022-11-05T07:07:11.612Z,13.20
2022-11-05T07:13:14.106Z,13.40
2022-11-05T07:19:16.538Z,13.70
2022-11-05T07:25:18.877Z,13.50
2022-11-05T07:31:21.136Z,13.50
2022-11-05T07:37:23.510Z,13.60
2022-11-05T07:43:26.037Z,13.80
2022-11-05T07:49:28.533Z,13.90
2022-11-05T07:55:31.092Z,14.30
2022-11-05T08:01:33.386Z,14.70
2022-11-05T08:07:36.457Z,14.90
2022-11-05T08:13:39.289Z,15.20
2022-11-05T08:19:41.172Z,15.30
2022-11-05T08:25:47.196Z,16.00
2022-11-05T08:31:49.280Z,16.80
2022-11-05T08:37:51.214Z,17.50
2022-11-05T08:43:56.496Z,19.20
2022-11-05T08:49:58.417Z,19.60
2022-11-05T08:56:00.786Z,19.60
2022-11-05T09:02:03.098Z,19.10
2022-11-05T09:08:10.230Z,19.50
2022-11-05T09:14:12.531Z,19.60
2022-11-05T09:20:14.691Z,19.50
2022-11-05T09:26:16.917Z,19.70
2022-11-05T09:32:19.578Z,19.80
2022-11-05T09:38:21.711Z,19.80
2022-11-05T09:44:38.107Z,19.90
2022-11-05T09:50:43.513Z,19.60
2022-11-05T09:56:46.685Z,19.60
2022-11-05T10:02:52.754Z,19.80
2022-11-05T10:09:36.238Z,19.80
2022-11-05T10:15:44.045Z,19.80
2022-11-05T10:22:05.977Z,20.10
2022-11-05T10:28:11.666Z,20.30
2022-11-05T10:34:17.934Z,20.50
2022-11-05T10:40:42.888Z,20.50
2022-11-05T10:46:50.169Z,20.90
2022-11-05T10:52:52.463Z,21.30
2022-11-05T10:58:57.537Z,22.00
2022-11-05T11:04:59.957Z,21.90
2022-11-05T11:11:11.772Z,22.50
2022-11-05T11:17:30.510Z,22.90
2022-11-05T11:23:39.067Z,23.20
2022-11-05T11:29:48.981Z,26.10
2022-11-05T11:35:51.766Z,27.10
2022-11-05T11:41:57.425Z,26.70
2022-11-05T11:48:03.043Z,26.10
2022-11-05T11:54:05.745Z,25.10
2022-11-05T12:00:10.053Z,23.20
2022-11-05T12:06:20.847Z,22.90
2022-11-05T12:12:46.558Z,22.60
2022-11-05T12:19:23.274Z,22.30
2022-11-05T12:25:38.024Z,22.10
2022-11-05T12:32:06.162Z,21.90
2022-11-05T12:38:19.959Z,21.80
2022-11-05T12:44:42.499Z,21.60
2022-11-05T12:50:50.170Z,21.50
2022-11-05T12:56:56.058Z,21.30
2022-11-05T13:03:10.146Z,21.10
2022-11-05T13:09:38.729Z,21.00
2022-11-05T13:15:49.621Z,20.80
2022-11-05T13:22:00.624Z,20.50
2022-11-05T13:28:23.594Z,20.30
2022-11-05T13:34:26.097Z,20.30
2022-11-05T13:40:37.392Z,20.10
2022-11-05T13:47:04.986Z,20.10
2022-11-05T13:53:22.252Z,19.90
2022-11-05T13:59:41.626Z,19.80
2022-11-05T14:05:44.428Z,19.60
2022-11-05T14:11:54.054Z,19.40
2022-11-05T14:17:57.955Z,19.30
2022-11-05T14:24:21.377Z,19.10
2022-11-05T14:30:47.770Z,18.90
2022-11-05T14:37:11.934Z,18.60
2022-11-05T14:43:14.142Z,18.50
2022-11-05T14:49:21.820Z,18.30
2022-11-05T14:55:34.983Z,18.10
2022-11-05T15:01:43.043Z,17.90
2022-11-05T15:07:45.209Z,17.70
2022-11-05T15:13:56.220Z,17.60
2022-11-05T15:20:10.326Z,17.50
2022-11-05T15:26:34.478Z,17.30
2022-11-05T15:32:38.583Z,17.20
2022-11-05T15:38:56.692Z,17.10
2022-11-05T15:45:04.678Z,17.10
2022-11-05T15:51:06.985Z,17.00
2022-11-05T15:57:24.662Z,16.90
2022-11-05T16:03:31.877Z,16.80
2022-11-05T16:09:36.939Z,16.70
2022-11-05T16:15:39.039Z,16.60
2022-11-05T16:21:54.914Z,16.60
2022-11-05T16:28:01.282Z,16.50
2022-11-05T16:34:03.388Z,16.50
2022-11-05T16:40:21.096Z,16.40
2022-11-05T16:46:25.907Z,16.30
2022-11-05T16:52:28.049Z,16.30
2022-11-05T16:58:30.550Z,16.20
2022-11-05T17:04:32.707Z,16.20
2022-11-05T17:10:35.127Z,16.10
2022-11-05T17:16:38.151Z,16.00
2022-11-05T17:22:40.141Z,15.90
2022-11-05T17:28:42.296Z,15.80
2022-11-05T17:34:44.317Z,15.80
2022-11-05T17:40:46.500Z,15.80
2022-11-05T17:46:48.529Z,15.70
2022-11-05T17:52:50.778Z,15.70
2022-11-05T17:58:52.911Z,15.70
2022-11-05T18:04:54.995Z,15.70
2022-11-05T18:10:57.048Z,15.70
2022-11-05T18:17:00.422Z,15.80
2022-11-05T18:23:02.440Z,15.90
2022-11-05T18:29:05.426Z,15.90
2022-11-05T18:35:07.786Z,15.90
2022-11-05T18:41:09.897Z,15.90
2022-11-05T18:47:12.301Z,15.90
2022-11-05T18:53:14.418Z,15.90
2022-11-05T19:05:40.814Z,15.90
2022-11-05T19:11:43.198Z,15.90
2022-11-05T19:17:45.579Z,16.00
2022-11-05T19:23:47.998Z,16.00
2022-11-05T19:29:50.214Z,15.90
2022-11-05T19:35:52.338Z,15.90
2022-11-05T19:41:57.699Z,15.90
2022-11-05T19:48:04.808Z,15.90
2022-11-05T19:54:07.917Z,15.90
2022-11-05T20:00:10.421Z,15.90
2022-11-05T20:06:28.776Z,15.90
2022-11-05T20:12:31.033Z,15.90
2022-11-05T20:18:33.492Z,15.90
2022-11-05T20:24:35.849Z,15.80
2022-11-05T20:30:39.641Z,15.80
2022-11-05T20:36:41.754Z,15.80
2022-11-05T20:42:44.124Z,15.80
2022-11-05T20:48:46.551Z,15.80
2022-11-05T20:54:48.542Z,15.80
2022-11-05T21:00:55.880Z,15.70
2022-11-05T21:06:58.359Z,15.80
2022-11-05T21:13:00.391Z,15.70
2022-11-05T21:19:03.130Z,15.70
2022-11-05T21:25:06.078Z,15.70
2022-11-05T21:31:09.082Z,15.70
2022-11-05T21:37:11.748Z,15.70
2022-11-05T21:43:14.023Z,15.70
2022-11-05T21:49:16.034Z,15.70
2022-11-05T21:55:36.694Z,15.70
2022-11-05T22:01:38.985Z,15.70
2022-11-05T22:07:41.114Z,15.70
2022-11-05T22:13:43.345Z,15.70
2022-11-05T22:19:45.471Z,15.60
2022-11-05T22:25:47.452Z,15.60
2022-11-05T22:31:49.795Z,15.60
2022-11-05T22:37:51.828Z,15.60
2022-11-05T22:43:54.038Z,15.60
2022-11-05T22:49:56.021Z,15.60
2022-11-05T22:55:58.402Z,15.60
2022-11-05T23:02:05.164Z,15.70
2022-11-05T23:08:29.476Z,15.70
2022-11-05T23:14:31.602Z,15.60
2022-11-05T23:20:52.099Z,15.70
2022-11-05T23:26:54.208Z,15.60
2022-11-05T23:32:56.529Z,15.60
2022-11-05T23:38:58.688Z,15.60
2022-11-05T23:45:19.125Z,15.60
2022-11-05T23:51:21.300Z,15.60
2022-11-05T23:57:23.298Z,15.50
